Terminal Aerodrome Forecast
Issued by NWS

Home | Current Version | Previous Version | Text Only | Print | Product List | Glossary On
Versions: 1 2 3 4 5 6 7 8 9 10 11 12
000
FTUS46 KMTR 271700
TAFSNS
TAF
KSNS 271731Z 2718/2818 12012KT P6SM OVC100
     FM272000 12006KT P6SM BKN120
     FM280000 29008KT P6SM SCT150
     FM280300 VRB03KT P6SM SCT150
     FM281000 11005KT P6SM SCT150=

USA.gov is the U.S. government's official web portal to all federal, state and local government web resources and services.